sensor_id;sensor_type;location;lat;lon;timestamp;P1;durP1;ratioP1;P2;durP2;ratioP2
14121;SDS011;7139;48.114;11.442;2023-04-25T00:01:40;3.23;;;2.30;;
14121;SDS011;7139;48.114;11.442;2023-04-25T00:04:06;2.73;;;2.53;;
14121;SDS011;7139;48.114;11.442;2023-04-25T00:06:33;2.47;;;2.27;;
14121;SDS011;7139;48.114;11.442;2023-04-25T00:09:01;2.37;;;2.17;;
14121;SDS011;7139;48.114;11.442;2023-04-25T00:11:28;2.83;;;2.00;;
14121;SDS011;7139;48.114;11.442;2023-04-25T00:13:56;3.87;;;2.53;;
14121;SDS011;7139;48.114;11.442;2023-04-25T00:16:26;2.80;;;2.50;;
14121;SDS011;7139;48.114;11.442;2023-04-25T00:18:53;2.50;;;2.30;;
14121;SDS011;7139;48.114;11.442;2023-04-25T00:21:20;2.57;;;2.27;;
14121;SDS011;7139;48.114;11.442;2023-04-25T00:23:49;2.57;;;2.27;;
14121;SDS011;7139;48.114;11.442;2023-04-25T00:26:16;3.90;;;2.53;;
14121;SDS011;7139;48.114;11.442;2023-04-25T00:28:42;3.20;;;2.27;;
14121;SDS011;7139;48.114;11.442;2023-04-25T00:31:09;2.43;;;2.23;;
14121;SDS011;7139;48.114;11.442;2023-04-25T00:33:37;2.60;;;2.30;;
14121;SDS011;7139;48.114;11.442;2023-04-25T00:36:04;2.30;;;2.10;;
14121;SDS011;7139;48.114;11.442;2023-04-25T00:38:32;3.40;;;2.10;;
14121;SDS011;7139;48.114;11.442;2023-04-25T00:40:58;2.83;;;2.40;;
14121;SDS011;7139;48.114;11.442;2023-04-25T00:43:26;2.37;;;2.10;;
14121;SDS011;7139;48.114;11.442;2023-04-25T00:45:53;2.57;;;2.37;;
14121;SDS011;7139;48.114;11.442;2023-04-25T00:48:22;2.63;;;2.30;;
14121;SDS011;7139;48.114;11.442;2023-04-25T00:50:51;2.50;;;2.30;;
14121;SDS011;7139;48.114;11.442;2023-04-25T00:53:20;2.90;;;2.33;;
14121;SDS011;7139;48.114;11.442;2023-04-25T00:55:47;2.50;;;2.30;;
14121;SDS011;7139;48.114;11.442;2023-04-25T00:58:15;3.00;;;2.57;;
14121;SDS011;7139;48.114;11.442;2023-04-25T01:00:42;2.40;;;2.17;;
14121;SDS011;7139;48.114;11.442;2023-04-25T01:03:11;4.70;;;2.57;;
14121;SDS011;7139;48.114;11.442;2023-04-25T01:05:38;2.50;;;2.30;;
14121;SDS011;7139;48.114;11.442;2023-04-25T01:08:08;3.50;;;2.30;;
14121;SDS011;7139;48.114;11.442;2023-04-25T01:10:35;3.17;;;2.50;;
14121;SDS011;7139;48.114;11.442;2023-04-25T01:13:02;3.33;;;2.50;;
14121;SDS011;7139;48.114;11.442;2023-04-25T01:15:29;2.40;;;2.20;;
14121;SDS011;7139;48.114;11.442;2023-04-25T01:17:56;2.60;;;2.20;;
14121;SDS011;7139;48.114;11.442;2023-04-25T01:20:25;3.77;;;2.43;;
14121;SDS011;7139;48.114;11.442;2023-04-25T01:22:54;3.03;;;2.20;;
14121;SDS011;7139;48.114;11.442;2023-04-25T01:25:22;2.83;;;2.40;;
14121;SDS011;7139;48.114;11.442;2023-04-25T01:27:48;3.17;;;2.30;;
14121;SDS011;7139;48.114;11.442;2023-04-25T01:30:15;2.73;;;2.50;;
14121;SDS011;7139;48.114;11.442;2023-04-25T01:32:42;2.97;;;2.50;;
14121;SDS011;7139;48.114;11.442;2023-04-25T01:35:10;3.53;;;2.10;;
14121;SDS011;7139;48.114;11.442;2023-04-25T01:37:37;2.60;;;2.40;;
14121;SDS011;7139;48.114;11.442;2023-04-25T01:40:07;2.30;;;2.10;;
14121;SDS011;7139;48.114;11.442;2023-04-25T01:42:35;2.57;;;2.33;;
14121;SDS011;7139;48.114;11.442;2023-04-25T01:45:04;2.70;;;2.50;;
14121;SDS011;7139;48.114;11.442;2023-04-25T01:47:32;2.93;;;2.20;;
14121;SDS011;7139;48.114;11.442;2023-04-25T01:50:00;3.20;;;2.70;;
14121;SDS011;7139;48.114;11.442;2023-04-25T01:52:26;2.93;;;2.50;;
14121;SDS011;7139;48.114;11.442;2023-04-25T01:54:53;4.33;;;2.70;;
14121;SDS011;7139;48.114;11.442;2023-04-25T01:57:22;2.93;;;2.60;;
14121;SDS011;7139;48.114;11.442;2023-04-25T01:59:48;3.03;;;2.73;;
14121;SDS011;7139;48.114;11.442;2023-04-25T02:02:16;3.07;;;2.53;;
14121;SDS011;7139;48.114;11.442;2023-04-25T02:04:42;3.73;;;2.63;;
14121;SDS011;7139;48.114;11.442;2023-04-25T02:07:09;2.60;;;2.37;;
14121;SDS011;7139;48.114;11.442;2023-04-25T02:09:36;3.20;;;2.70;;
14121;SDS011;7139;48.114;11.442;2023-04-25T02:12:03;2.47;;;2.20;;
14121;SDS011;7139;48.114;11.442;2023-04-25T02:14:31;2.83;;;2.30;;
14121;SDS011;7139;48.114;11.442;2023-04-25T02:16:58;2.87;;;2.33;;
14121;SDS011;7139;48.114;11.442;2023-04-25T02:19:25;2.83;;;2.30;;
14121;SDS011;7139;48.114;11.442;2023-04-25T02:21:51;2.80;;;2.23;;
14121;SDS011;7139;48.114;11.442;2023-04-25T02:24:18;3.83;;;2.10;;
14121;SDS011;7139;48.114;11.442;2023-04-25T02:26:45;2.97;;;2.60;;
14121;SDS011;7139;48.114;11.442;2023-04-25T02:29:12;2.57;;;2.07;;
14121;SDS011;7139;48.114;11.442;2023-04-25T02:31:41;2.77;;;2.37;;
14121;SDS011;7139;48.114;11.442;2023-04-25T02:34:08;3.27;;;2.53;;
14121;SDS011;7139;48.114;11.442;2023-04-25T02:36:35;3.83;;;2.53;;
14121;SDS011;7139;48.114;11.442;2023-04-25T02:39:01;2.50;;;2.30;;
14121;SDS011;7139;48.114;11.442;2023-04-25T02:41:28;3.10;;;2.07;;
14121;SDS011;7139;48.114;11.442;2023-04-25T02:43:55;2.60;;;2.40;;
14121;SDS011;7139;48.114;11.442;2023-04-25T02:46:22;2.33;;;2.13;;
14121;SDS011;7139;48.114;11.442;2023-04-25T02:48:50;2.67;;;2.20;;
14121;SDS011;7139;48.114;11.442;2023-04-25T02:51:17;2.70;;;2.50;;
14121;SDS011;7139;48.114;11.442;2023-04-25T02:53:44;2.97;;;2.30;;
14121;SDS011;7139;48.114;11.442;2023-04-25T02:56:10;3.23;;;2.30;;
14121;SDS011;7139;48.114;11.442;2023-04-25T02:58:37;4.17;;;2.47;;
14121;SDS011;7139;48.114;11.442;2023-04-25T03:01:04;3.87;;;2.50;;
14121;SDS011;7139;48.114;11.442;2023-04-25T03:03:30;2.70;;;2.40;;
14121;SDS011;7139;48.114;11.442;2023-04-25T03:05:58;4.60;;;2.67;;
14121;SDS011;7139;48.114;11.442;2023-04-25T03:08:25;3.07;;;2.57;;
14121;SDS011;7139;48.114;11.442;2023-04-25T03:10:57;4.37;;;3.10;;
14121;SDS011;7139;48.114;11.442;2023-04-25T03:13:24;3.33;;;2.80;;
14121;SDS011;7139;48.114;11.442;2023-04-25T03:15:50;3.80;;;2.40;;
14121;SDS011;7139;48.114;11.442;2023-04-25T03:18:17;6.17;;;2.60;;
14121;SDS011;7139;48.114;11.442;2023-04-25T03:20:44;4.03;;;2.33;;
14121;SDS011;7139;48.114;11.442;2023-04-25T03:23:13;3.20;;;2.63;;
14121;SDS011;7139;48.114;11.442;2023-04-25T03:25:39;3.83;;;2.40;;
14121;SDS011;7139;48.114;11.442;2023-04-25T03:28:06;3.77;;;2.60;;
14121;SDS011;7139;48.114;11.442;2023-04-25T03:30:33;4.03;;;2.17;;
14121;SDS011;7139;48.114;11.442;2023-04-25T03:32:59;3.63;;;2.30;;
14121;SDS011;7139;48.114;11.442;2023-04-25T03:35:26;2.90;;;2.10;;
14121;SDS011;7139;48.114;11.442;2023-04-25T03:37:53;3.00;;;2.50;;
14121;SDS011;7139;48.114;11.442;2023-04-25T03:40:21;2.30;;;2.07;;
14121;SDS011;7139;48.114;11.442;2023-04-25T03:42:48;2.80;;;2.03;;
14121;SDS011;7139;48.114;11.442;2023-04-25T03:45:15;2.93;;;2.17;;
14121;SDS011;7139;48.114;11.442;2023-04-25T03:47:41;2.45;;;1.90;;
14121;SDS011;7139;48.114;11.442;2023-04-25T03:50:08;2.70;;;1.83;;
14121;SDS011;7139;48.114;11.442;2023-04-25T03:52:35;2.20;;;2.00;;
14121;SDS011;7139;48.114;11.442;2023-04-25T03:55:02;2.17;;;1.90;;
14121;SDS011;7139;48.114;11.442;2023-04-25T03:57:32;2.53;;;2.03;;
14121;SDS011;7139;48.114;11.442;2023-04-25T03:59:58;2.03;;;1.70;;
14121;SDS011;7139;48.114;11.442;2023-04-25T04:02:25;2.83;;;2.07;;
14121;SDS011;7139;48.114;11.442;2023-04-25T04:04:52;2.33;;;2.00;;
14121;SDS011;7139;48.114;11.442;2023-04-25T04:07:20;1.83;;;1.70;;
14121;SDS011;7139;48.114;11.442;2023-04-25T04:09:47;2.33;;;2.03;;
14121;SDS011;7139;48.114;11.442;2023-04-25T04:12:14;3.07;;;1.80;;
14121;SDS011;7139;48.114;11.442;2023-04-25T04:14:42;1.90;;;1.80;;
14121;SDS011;7139;48.114;11.442;2023-04-25T04:17:09;2.50;;;1.83;;
14121;SDS011;7139;48.114;11.442;2023-04-25T04:19:35;3.40;;;2.00;;
14121;SDS011;7139;48.114;11.442;2023-04-25T04:22:02;2.33;;;2.13;;
14121;SDS011;7139;48.114;11.442;2023-04-25T04:24:29;2.93;;;2.10;;
14121;SDS011;7139;48.114;11.442;2023-04-25T04:26:56;2.23;;;2.03;;
14121;SDS011;7139;48.114;11.442;2023-04-25T04:29:23;2.50;;;2.00;;
14121;SDS011;7139;48.114;11.442;2023-04-25T04:31:52;2.67;;;2.10;;
14121;SDS011;7139;48.114;11.442;2023-04-25T04:34:18;2.80;;;2.03;;
14121;SDS011;7139;48.114;11.442;2023-04-25T04:36:45;2.40;;;2.10;;
14121;SDS011;7139;48.114;11.442;2023-04-25T04:39:12;2.60;;;1.97;;
14121;SDS011;7139;48.114;11.442;2023-04-25T04:41:39;2.93;;;2.00;;
14121;SDS011;7139;48.114;11.442;2023-04-25T04:44:06;2.40;;;2.20;;
14121;SDS011;7139;48.114;11.442;2023-04-25T04:46:33;2.57;;;1.90;;
14121;SDS011;7139;48.114;11.442;2023-04-25T04:49:04;2.67;;;2.30;;
14121;SDS011;7139;48.114;11.442;2023-04-25T04:51:30;2.77;;;2.23;;
14121;SDS011;7139;48.114;11.442;2023-04-25T04:53:58;2.57;;;2.37;;
14121;SDS011;7139;48.114;11.442;2023-04-25T04:56:27;2.80;;;2.30;;
14121;SDS011;7139;48.114;11.442;2023-04-25T04:58:54;3.53;;;2.17;;
14121;SDS011;7139;48.114;11.442;2023-04-25T05:01:21;2.40;;;2.00;;
14121;SDS011;7139;48.114;11.442;2023-04-25T05:03:48;2.50;;;2.30;;
14121;SDS011;7139;48.114;11.442;2023-04-25T05:06:16;2.87;;;2.20;;
14121;SDS011;7139;48.114;11.442;2023-04-25T05:08:43;2.90;;;2.07;;
14121;SDS011;7139;48.114;11.442;2023-04-25T05:11:10;2.33;;;2.13;;
14121;SDS011;7139;48.114;11.442;2023-04-25T05:13:37;2.40;;;2.20;;
14121;SDS011;7139;48.114;11.442;2023-04-25T05:16:04;2.57;;;2.20;;
14121;SDS011;7139;48.114;11.442;2023-04-25T05:18:30;2.67;;;2.40;;
14121;SDS011;7139;48.114;11.442;2023-04-25T05:20:57;3.47;;;2.47;;
14121;SDS011;7139;48.114;11.442;2023-04-25T05:23:25;2.50;;;2.30;;
14121;SDS011;7139;48.114;11.442;2023-04-25T05:25:52;3.60;;;2.23;;
14121;SDS011;7139;48.114;11.442;2023-04-25T05:28:19;2.97;;;2.60;;
14121;SDS011;7139;48.114;11.442;2023-04-25T05:30:46;2.73;;;2.37;;
14121;SDS011;7139;48.114;11.442;2023-04-25T05:33:13;3.83;;;2.40;;
14121;SDS011;7139;48.114;11.442;2023-04-25T05:35:39;3.33;;;2.47;;
14121;SDS011;7139;48.114;11.442;2023-04-25T05:38:06;2.90;;;2.50;;
14121;SDS011;7139;48.114;11.442;2023-04-25T05:40:34;4.23;;;2.60;;
14121;SDS011;7139;48.114;11.442;2023-04-25T05:43:01;4.33;;;2.47;;
14121;SDS011;7139;48.114;11.442;2023-04-25T05:45:28;3.93;;;2.10;;
14121;SDS011;7139;48.114;11.442;2023-04-25T05:47:54;4.17;;;2.43;;
14121;SDS011;7139;48.114;11.442;2023-04-25T05:50:21;4.90;;;2.80;;
14121;SDS011;7139;48.114;11.442;2023-04-25T05:52:48;2.77;;;2.40;;
14121;SDS011;7139;48.114;11.442;2023-04-25T05:55:15;5.03;;;2.70;;
14121;SDS011;7139;48.114;11.442;2023-04-25T05:57:43;3.87;;;2.80;;
14121;SDS011;7139;48.114;11.442;2023-04-25T06:00:12;4.40;;;2.83;;
14121;SDS011;7139;48.114;11.442;2023-04-25T06:02:40;5.03;;;3.27;;
14121;SDS011;7139;48.114;11.442;2023-04-25T06:05:08;4.33;;;2.97;;
14121;SDS011;7139;48.114;11.442;2023-04-25T06:07:35;4.70;;;3.40;;
14121;SDS011;7139;48.114;11.442;2023-04-25T06:10:01;3.00;;;2.80;;
14121;SDS011;7139;48.114;11.442;2023-04-25T06:12:31;4.50;;;3.13;;
14121;SDS011;7139;48.114;11.442;2023-04-25T06:14:59;3.53;;;3.20;;
14121;SDS011;7139;48.114;11.442;2023-04-25T06:17:26;4.00;;;2.77;;
14121;SDS011;7139;48.114;11.442;2023-04-25T06:19:52;4.03;;;2.60;;
14121;SDS011;7139;48.114;11.442;2023-04-25T06:22:19;3.43;;;2.83;;
14121;SDS011;7139;48.114;11.442;2023-04-25T06:24:46;3.50;;;2.80;;
14121;SDS011;7139;48.114;11.442;2023-04-25T06:27:13;3.30;;;2.70;;
14121;SDS011;7139;48.114;11.442;2023-04-25T06:29:39;3.87;;;2.90;;
14121;SDS011;7139;48.114;11.442;2023-04-25T06:32:07;3.23;;;2.93;;
14121;SDS011;7139;48.114;11.442;2023-04-25T06:34:34;4.50;;;3.23;;
14121;SDS011;7139;48.114;11.442;2023-04-25T06:37:01;4.53;;;3.67;;
14121;SDS011;7139;48.114;11.442;2023-04-25T06:39:27;4.93;;;3.60;;
14121;SDS011;7139;48.114;11.442;2023-04-25T06:41:54;4.53;;;3.40;;
14121;SDS011;7139;48.114;11.442;2023-04-25T06:44:21;5.23;;;3.77;;
14121;SDS011;7139;48.114;11.442;2023-04-25T06:46:51;4.83;;;3.70;;
14121;SDS011;7139;48.114;11.442;2023-04-25T06:49:19;3.77;;;3.40;;
14121;SDS011;7139;48.114;11.442;2023-04-25T06:51:45;3.80;;;3.40;;
14121;SDS011;7139;48.114;11.442;2023-04-25T06:54:12;3.90;;;3.47;;
14121;SDS011;7139;48.114;11.442;2023-04-25T06:56:39;4.10;;;3.30;;
14121;SDS011;7139;48.114;11.442;2023-04-25T06:59:06;5.63;;;3.70;;
14121;SDS011;7139;48.114;11.442;2023-04-25T07:01:33;4.80;;;3.27;;
14121;SDS011;7139;48.114;11.442;2023-04-25T07:04:00;3.33;;;3.03;;
14121;SDS011;7139;48.114;11.442;2023-04-25T07:06:28;5.63;;;3.50;;
14121;SDS011;7139;48.114;11.442;2023-04-25T07:08:56;4.73;;;3.63;;
14121;SDS011;7139;48.114;11.442;2023-04-25T07:11:22;4.80;;;3.33;;
14121;SDS011;7139;48.114;11.442;2023-04-25T07:13:50;3.50;;;3.20;;
14121;SDS011;7139;48.114;11.442;2023-04-25T07:16:16;4.30;;;3.00;;
14121;SDS011;7139;48.114;11.442;2023-04-25T07:18:43;5.37;;;3.30;;
14121;SDS011;7139;48.114;11.442;2023-04-25T07:21:10;4.63;;;3.20;;
14121;SDS011;7139;48.114;11.442;2023-04-25T07:23:38;4.37;;;3.27;;
14121;SDS011;7139;48.114;11.442;2023-04-25T07:26:05;4.37;;;3.30;;
14121;SDS011;7139;48.114;11.442;2023-04-25T07:28:32;5.97;;;3.10;;
14121;SDS011;7139;48.114;11.442;2023-04-25T07:30:59;6.20;;;3.97;;
14121;SDS011;7139;48.114;11.442;2023-04-25T07:33:26;4.60;;;3.53;;
14121;SDS011;7139;48.114;11.442;2023-04-25T07:35:53;3.70;;;3.40;;
14121;SDS011;7139;48.114;11.442;2023-04-25T07:38:20;5.50;;;3.83;;
14121;SDS011;7139;48.114;11.442;2023-04-25T07:40:48;4.30;;;3.37;;
14121;SDS011;7139;48.114;11.442;2023-04-25T07:43:15;6.33;;;3.70;;
14121;SDS011;7139;48.114;11.442;2023-04-25T07:45:42;4.43;;;3.70;;
14121;SDS011;7139;48.114;11.442;2023-04-25T07:48:09;4.53;;;3.87;;
14121;SDS011;7139;48.114;11.442;2023-04-25T07:50:36;4.23;;;3.60;;
14121;SDS011;7139;48.114;11.442;2023-04-25T07:53:03;5.47;;;3.93;;
14121;SDS011;7139;48.114;11.442;2023-04-25T07:55:29;4.50;;;3.53;;
14121;SDS011;7139;48.114;11.442;2023-04-25T07:57:57;5.73;;;3.77;;
14121;SDS011;7139;48.114;11.442;2023-04-25T08:00:24;6.00;;;3.73;;
14121;SDS011;7139;48.114;11.442;2023-04-25T08:02:51;4.17;;;3.67;;
14121;SDS011;7139;48.114;11.442;2023-04-25T08:05:18;4.20;;;3.77;;
14121;SDS011;7139;48.114;11.442;2023-04-25T08:07:44;4.53;;;3.30;;
14121;SDS011;7139;48.114;11.442;2023-04-25T08:10:11;3.73;;;3.27;;
14121;SDS011;7139;48.114;11.442;2023-04-25T08:12:38;4.30;;;3.33;;
14121;SDS011;7139;48.114;11.442;2023-04-25T08:15:07;5.87;;;3.33;;
14121;SDS011;7139;48.114;11.442;2023-04-25T08:17:35;3.10;;;2.70;;
14121;SDS011;7139;48.114;11.442;2023-04-25T08:20:02;3.13;;;2.67;;
14121;SDS011;7139;48.114;11.442;2023-04-25T08:22:30;3.93;;;2.80;;
14121;SDS011;7139;48.114;11.442;2023-04-25T08:24:57;4.97;;;3.10;;
14121;SDS011;7139;48.114;11.442;2023-04-25T08:27:24;3.83;;;3.17;;
14121;SDS011;7139;48.114;11.442;2023-04-25T08:29:51;4.73;;;3.00;;
14121;SDS011;7139;48.114;11.442;2023-04-25T08:32:19;4.13;;;3.20;;
14121;SDS011;7139;48.114;11.442;2023-04-25T08:34:46;3.43;;;2.87;;
14121;SDS011;7139;48.114;11.442;2023-04-25T08:37:13;5.63;;;2.97;;
14121;SDS011;7139;48.114;11.442;2023-04-25T08:39:40;3.80;;;2.47;;
14121;SDS011;7139;48.114;11.442;2023-04-25T08:42:07;3.37;;;2.33;;
14121;SDS011;7139;48.114;11.442;2023-04-25T08:44:35;2.77;;;2.40;;
14121;SDS011;7139;48.114;11.442;2023-04-25T08:47:02;2.43;;;2.07;;
14121;SDS011;7139;48.114;11.442;2023-04-25T08:49:31;3.17;;;2.30;;
14121;SDS011;7139;48.114;11.442;2023-04-25T08:51:59;4.17;;;2.50;;
14121;SDS011;7139;48.114;11.442;2023-04-25T08:54:27;3.50;;;2.00;;
14121;SDS011;7139;48.114;11.442;2023-04-25T08:56:56;4.40;;;2.33;;
14121;SDS011;7139;48.114;11.442;2023-04-25T08:59:24;4.07;;;2.03;;
14121;SDS011;7139;48.114;11.442;2023-04-25T09:01:52;2.40;;;2.00;;
14121;SDS011;7139;48.114;11.442;2023-04-25T09:04:18;3.83;;;2.17;;
14121;SDS011;7139;48.114;11.442;2023-04-25T09:06:46;4.03;;;2.30;;
14121;SDS011;7139;48.114;11.442;2023-04-25T09:09:14;4.50;;;2.17;;
14121;SDS011;7139;48.114;11.442;2023-04-25T09:11:41;4.17;;;2.10;;
14121;SDS011;7139;48.114;11.442;2023-04-25T09:14:11;3.27;;;2.17;;
14121;SDS011;7139;48.114;11.442;2023-04-25T09:19:25;3.43;;;1.80;;
14121;SDS011;7139;48.114;11.442;2023-04-25T09:21:55;2.03;;;1.90;;
14121;SDS011;7139;48.114;11.442;2023-04-25T09:24:32;2.77;;;2.10;;
14121;SDS011;7139;48.114;11.442;2023-04-25T09:26:59;2.80;;;2.13;;
14121;SDS011;7139;48.114;11.442;2023-04-25T09:29:29;4.03;;;2.30;;
14121;SDS011;7139;48.114;11.442;2023-04-25T09:32:16;2.50;;;2.00;;
14121;SDS011;7139;48.114;11.442;2023-04-25T09:34:46;2.57;;;2.10;;
14121;SDS011;7139;48.114;11.442;2023-04-25T09:37:18;3.70;;;1.90;;
14121;SDS011;7139;48.114;11.442;2023-04-25T09:39:46;2.73;;;2.00;;
14121;SDS011;7139;48.114;11.442;2023-04-25T09:42:14;3.47;;;2.10;;
14121;SDS011;7139;48.114;11.442;2023-04-25T09:44:42;2.30;;;2.00;;
14121;SDS011;7139;48.114;11.442;2023-04-25T09:47:10;3.00;;;2.00;;
14121;SDS011;7139;48.114;11.442;2023-04-25T09:49:38;1.87;;;1.70;;
14121;SDS011;7139;48.114;11.442;2023-04-25T09:52:07;2.47;;;2.10;;
14121;SDS011;7139;48.114;11.442;2023-04-25T09:54:35;3.40;;;2.10;;
14121;SDS011;7139;48.114;11.442;2023-04-25T09:57:03;2.77;;;1.80;;
14121;SDS011;7139;48.114;11.442;2023-04-25T09:59:36;2.20;;;1.80;;
14121;SDS011;7139;48.114;11.442;2023-04-25T10:02:07;2.57;;;2.07;;
14121;SDS011;7139;48.114;11.442;2023-04-25T10:04:35;4.83;;;1.90;;
14121;SDS011;7139;48.114;11.442;2023-04-25T10:07:03;2.53;;;1.90;;
14121;SDS011;7139;48.114;11.442;2023-04-25T10:09:32;2.63;;;1.93;;
14121;SDS011;7139;48.114;11.442;2023-04-25T10:12:01;2.20;;;1.83;;
14121;SDS011;7139;48.114;11.442;2023-04-25T10:14:29;2.43;;;1.80;;
14121;SDS011;7139;48.114;11.442;2023-04-25T10:16:56;2.27;;;1.90;;
14121;SDS011;7139;48.114;11.442;2023-04-25T10:19:24;3.13;;;1.80;;
14121;SDS011;7139;48.114;11.442;2023-04-25T10:21:52;2.43;;;1.67;;
14121;SDS011;7139;48.114;11.442;2023-04-25T10:24:21;2.27;;;1.63;;
14121;SDS011;7139;48.114;11.442;2023-04-25T10:26:50;1.97;;;1.67;;
14121;SDS011;7139;48.114;11.442;2023-04-25T10:29:22;1.87;;;1.50;;
14121;SDS011;7139;48.114;11.442;2023-04-25T10:31:50;1.70;;;1.60;;
14121;SDS011;7139;48.114;11.442;2023-04-25T10:34:18;2.33;;;1.40;;
14121;SDS011;7139;48.114;11.442;2023-04-25T10:36:49;1.50;;;1.40;;
14121;SDS011;7139;48.114;11.442;2023-04-25T10:39:21;2.03;;;1.60;;
14121;SDS011;7139;48.114;11.442;2023-04-25T10:41:52;1.70;;;1.60;;
14121;SDS011;7139;48.114;11.442;2023-04-25T10:44:22;2.40;;;2.20;;
14121;SDS011;7139;48.114;11.442;2023-04-25T10:46:52;4.73;;;1.97;;
14121;SDS011;7139;48.114;11.442;2023-04-25T10:49:30;2.73;;;1.60;;
14121;SDS011;7139;48.114;11.442;2023-04-25T10:52:17;2.10;;;1.90;;
14121;SDS011;7139;48.114;11.442;2023-04-25T10:54:51;2.97;;;2.10;;
14121;SDS011;7139;48.114;11.442;2023-04-25T10:57:28;2.60;;;2.23;;
14121;SDS011;7139;48.114;11.442;2023-04-25T11:00:01;2.80;;;1.90;;
14121;SDS011;7139;48.114;11.442;2023-04-25T11:02:31;1.80;;;1.70;;
14121;SDS011;7139;48.114;11.442;2023-04-25T11:05:02;3.80;;;2.00;;
14121;SDS011;7139;48.114;11.442;2023-04-25T11:07:33;3.67;;;1.87;;
14121;SDS011;7139;48.114;11.442;2023-04-25T11:10:03;3.13;;;1.70;;
14121;SDS011;7139;48.114;11.442;2023-04-25T11:12:31;1.77;;;1.50;;
14121;SDS011;7139;48.114;11.442;2023-04-25T11:15:00;1.50;;;1.20;;
14121;SDS011;7139;48.114;11.442;2023-04-25T11:17:28;1.83;;;1.60;;
14121;SDS011;7139;48.114;11.442;2023-04-25T11:19:55;3.23;;;1.40;;
14121;SDS011;7139;48.114;11.442;2023-04-25T11:22:22;1.90;;;1.70;;
14121;SDS011;7139;48.114;11.442;2023-04-25T11:24:49;2.07;;;1.87;;
14121;SDS011;7139;48.114;11.442;2023-04-25T11:27:16;2.07;;;1.67;;
14121;SDS011;7139;48.114;11.442;2023-04-25T11:29:43;2.33;;;1.80;;
14121;SDS011;7139;48.114;11.442;2023-04-25T11:32:14;2.90;;;1.80;;
14121;SDS011;7139;48.114;11.442;2023-04-25T11:34:42;4.53;;;1.80;;
14121;SDS011;7139;48.114;11.442;2023-04-25T11:37:10;2.10;;;1.77;;
14121;SDS011;7139;48.114;11.442;2023-04-25T11:39:39;1.80;;;1.70;;
14121;SDS011;7139;48.114;11.442;2023-04-25T11:42:09;2.10;;;1.90;;
14121;SDS011;7139;48.114;11.442;2023-04-25T11:44:37;2.30;;;1.90;;
14121;SDS011;7139;48.114;11.442;2023-04-25T11:47:04;2.00;;;1.60;;
14121;SDS011;7139;48.114;11.442;2023-04-25T11:49:32;1.57;;;1.47;;
14121;SDS011;7139;48.114;11.442;2023-04-25T11:52:00;1.57;;;1.43;;
14121;SDS011;7139;48.114;11.442;2023-04-25T11:54:27;1.47;;;1.37;;
14121;SDS011;7139;48.114;11.442;2023-04-25T11:56:54;1.80;;;1.57;;
14121;SDS011;7139;48.114;11.442;2023-04-25T11:59:22;2.37;;;1.60;;
14121;SDS011;7139;48.114;11.442;2023-04-25T12:01:57;1.53;;;1.43;;
14121;SDS011;7139;48.114;11.442;2023-04-25T12:04:26;2.10;;;1.30;;
14121;SDS011;7139;48.114;11.442;2023-04-25T12:06:58;1.30;;;1.20;;
14121;SDS011;7139;48.114;11.442;2023-04-25T12:09:27;1.63;;;1.40;;
14121;SDS011;7139;48.114;11.442;2023-04-25T12:11:56;2.27;;;1.40;;
14121;SDS011;7139;48.114;11.442;2023-04-25T12:14:24;1.57;;;1.33;;
14121;SDS011;7139;48.114;11.442;2023-04-25T12:16:52;1.40;;;1.30;;
14121;SDS011;7139;48.114;11.442;2023-04-25T12:19:21;1.67;;;1.47;;
14121;SDS011;7139;48.114;11.442;2023-04-25T12:21:48;1.30;;;1.20;;
14121;SDS011;7139;48.114;11.442;2023-04-25T12:24:17;1.30;;;1.20;;
14121;SDS011;7139;48.114;11.442;2023-04-25T12:26:51;1.70;;;1.37;;
14121;SDS011;7139;48.114;11.442;2023-04-25T12:29:19;1.40;;;1.30;;
14121;SDS011;7139;48.114;11.442;2023-04-25T12:31:47;1.40;;;1.30;;
14121;SDS011;7139;48.114;11.442;2023-04-25T12:34:16;1.30;;;1.20;;
14121;SDS011;7139;48.114;11.442;2023-04-25T12:36:43;1.80;;;1.70;;
14121;SDS011;7139;48.114;11.442;2023-04-25T12:39:14;1.27;;;1.20;;
14121;SDS011;7139;48.114;11.442;2023-04-25T12:41:43;1.77;;;1.30;;
14121;SDS011;7139;48.114;11.442;2023-04-25T12:44:10;1.17;;;0.93;;
14121;SDS011;7139;48.114;11.442;2023-04-25T12:46:37;1.30;;;1.20;;
14121;SDS011;7139;48.114;11.442;2023-04-25T12:49:04;1.20;;;1.10;;
14121;SDS011;7139;48.114;11.442;2023-04-25T12:51:32;1.30;;;1.20;;
14121;SDS011;7139;48.114;11.442;2023-04-25T12:53:59;1.20;;;1.10;;
14121;SDS011;7139;48.114;11.442;2023-04-25T12:56:26;0.90;;;0.90;;
14121;SDS011;7139;48.114;11.442;2023-04-25T12:58:55;1.17;;;1.07;;
14121;SDS011;7139;48.114;11.442;2023-04-25T13:01:23;1.10;;;1.00;;
14121;SDS011;7139;48.114;11.442;2023-04-25T13:03:51;0.80;;;0.80;;
14121;SDS011;7139;48.114;11.442;2023-04-25T13:06:19;1.10;;;1.00;;
14121;SDS011;7139;48.114;11.442;2023-04-25T13:08:46;1.00;;;1.00;;
14121;SDS011;7139;48.114;11.442;2023-04-25T13:11:13;1.63;;;1.10;;
14121;SDS011;7139;48.114;11.442;2023-04-25T13:13:40;1.57;;;1.30;;
14121;SDS011;7139;48.114;11.442;2023-04-25T13:16:08;1.33;;;1.23;;
14121;SDS011;7139;48.114;11.442;2023-04-25T13:18:35;1.00;;;1.00;;
14121;SDS011;7139;48.114;11.442;2023-04-25T13:21:02;0.90;;;0.90;;
14121;SDS011;7139;48.114;11.442;2023-04-25T13:23:29;1.87;;;1.17;;
14121;SDS011;7139;48.114;11.442;2023-04-25T13:25:56;1.63;;;1.50;;
14121;SDS011;7139;48.114;11.442;2023-04-25T13:28:25;1.70;;;1.60;;
14121;SDS011;7139;48.114;11.442;2023-04-25T13:30:52;2.13;;;1.60;;
14121;SDS011;7139;48.114;11.442;2023-04-25T13:33:20;2.40;;;1.90;;
14121;SDS011;7139;48.114;11.442;2023-04-25T13:35:50;1.50;;;1.10;;
14121;SDS011;7139;48.114;11.442;2023-04-25T13:38:19;1.67;;;1.43;;
14121;SDS011;7139;48.114;11.442;2023-04-25T13:40:47;1.83;;;1.67;;
14121;SDS011;7139;48.114;11.442;2023-04-25T13:43:14;2.20;;;1.80;;
14121;SDS011;7139;48.114;11.442;2023-04-25T13:45:41;0.87;;;0.87;;
14121;SDS011;7139;48.114;11.442;2023-04-25T13:48:08;2.87;;;2.20;;
14121;SDS011;7139;48.114;11.442;2023-04-25T13:50:36;2.77;;;2.00;;
14121;SDS011;7139;48.114;11.442;2023-04-25T13:53:03;1.37;;;1.27;;
14121;SDS011;7139;48.114;11.442;2023-04-25T13:55:29;1.40;;;1.30;;
14121;SDS011;7139;48.114;11.442;2023-04-25T13:57:56;2.73;;;2.37;;
14121;SDS011;7139;48.114;11.442;2023-04-25T14:00:23;2.47;;;2.20;;
14121;SDS011;7139;48.114;11.442;2023-04-25T14:02:50;2.43;;;2.03;;
14121;SDS011;7139;48.114;11.442;2023-04-25T14:05:18;3.83;;;2.40;;
14121;SDS011;7139;48.114;11.442;2023-04-25T14:07:46;1.83;;;1.60;;
14121;SDS011;7139;48.114;11.442;2023-04-25T14:10:13;2.33;;;2.13;;
14121;SDS011;7139;48.114;11.442;2023-04-25T14:12:40;3.37;;;2.90;;
14121;SDS011;7139;48.114;11.442;2023-04-25T14:15:07;2.70;;;2.50;;
14121;SDS011;7139;48.114;11.442;2023-04-25T14:17:34;7.07;;;3.77;;
14121;SDS011;7139;48.114;11.442;2023-04-25T14:20:01;3.77;;;3.40;;
14121;SDS011;7139;48.114;11.442;2023-04-25T14:22:30;2.60;;;2.20;;
14121;SDS011;7139;48.114;11.442;2023-04-25T14:24:58;3.70;;;3.03;;
14121;SDS011;7139;48.114;11.442;2023-04-25T14:27:25;2.13;;;1.80;;
14121;SDS011;7139;48.114;11.442;2023-04-25T14:29:52;2.67;;;2.00;;
14121;SDS011;7139;48.114;11.442;2023-04-25T14:32:19;2.47;;;2.00;;
14121;SDS011;7139;48.114;11.442;2023-04-25T14:34:46;1.00;;;1.00;;
14121;SDS011;7139;48.114;11.442;2023-04-25T14:37:13;3.30;;;0.93;;
14121;SDS011;7139;48.114;11.442;2023-04-25T14:39:40;0.80;;;0.80;;
14121;SDS011;7139;48.114;11.442;2023-04-25T14:42:08;1.73;;;1.43;;
14121;SDS011;7139;48.114;11.442;2023-04-25T14:44:36;2.17;;;1.97;;
14121;SDS011;7139;48.114;11.442;2023-04-25T14:47:02;2.43;;;1.60;;
14121;SDS011;7139;48.114;11.442;2023-04-25T14:49:29;1.50;;;1.40;;
14121;SDS011;7139;48.114;11.442;2023-04-25T14:51:57;1.10;;;1.10;;
14121;SDS011;7139;48.114;11.442;2023-04-25T14:54:25;1.30;;;1.20;;